createdAt,value
2022-09-12T00:01:25.444Z,31.55
2022-09-12T00:03:54.203Z,30.63
2022-09-12T00:06:24.306Z,35.28
2022-09-12T00:08:55.456Z,29.85
2022-09-12T00:11:23.899Z,31.60
2022-09-12T00:13:56.236Z,30.25
2022-09-12T00:16:26.064Z,31.55
2022-09-12T00:18:56.458Z,29.27
2022-09-12T00:21:24.566Z,28.10
2022-09-12T00:23:52.635Z,28.20
2022-09-12T00:26:21.747Z,28.23
2022-09-12T00:28:50.344Z,26.25
2022-09-12T00:31:21.493Z,26.33
2022-09-12T00:33:49.229Z,29.92
2022-09-12T00:36:19.163Z,23.88
2022-09-12T00:38:47.705Z,31.40
2022-09-12T00:41:18.960Z,24.40
2022-09-12T00:43:49.625Z,25.90
2022-09-12T00:46:28.036Z,25.65
2022-09-12T00:49:02.771Z,24.38
2022-09-12T00:51:33.928Z,25.17
2022-09-12T00:54:06.996Z,23.73
2022-09-12T00:56:36.530Z,24.67
2022-09-12T00:59:08.371Z,24.43
2022-09-12T01:01:38.813Z,23.10
2022-09-12T01:04:06.771Z,26.15
2022-09-12T01:06:38.444Z,26.35
2022-09-12T01:09:06.487Z,28.88
2022-09-12T01:11:38.419Z,25.35
2022-09-12T01:14:07.428Z,24.77
2022-09-12T01:16:38.109Z,27.52
2022-09-12T01:19:26.430Z,26.35
2022-09-12T01:22:12.475Z,24.93
2022-09-12T01:25:01.308Z,26.40
2022-09-12T01:27:45.048Z,28.23
2022-09-12T01:30:39.858Z,26.67
2022-09-12T01:33:24.919Z,27.95
2022-09-12T01:36:02.932Z,24.85
2022-09-12T01:38:39.670Z,26.25
2022-09-12T01:41:18.930Z,25.07
2022-09-12T01:43:53.451Z,24.25
2022-09-12T01:46:28.605Z,25.23
2022-09-12T01:49:01.498Z,25.48
2022-09-12T01:51:35.952Z,27.63
2022-09-12T01:54:09.744Z,28.92
2022-09-12T01:56:41.303Z,24.02
2022-09-12T01:59:16.014Z,29.17
2022-09-12T02:01:49.692Z,22.98
2022-09-12T02:04:21.914Z,24.17
2022-09-12T02:06:53.354Z,23.20
2022-09-12T02:09:24.875Z,27.20
2022-09-12T02:11:57.468Z,20.80
2022-09-12T02:14:27.695Z,23.58
2022-09-12T02:17:02.283Z,29.08
2022-09-12T02:19:35.374Z,22.65
2022-09-12T02:22:05.858Z,23.60
2022-09-12T02:24:39.655Z,25.67
2022-09-12T02:27:13.623Z,22.07
2022-09-12T02:29:41.709Z,23.35
2022-09-12T02:32:20.034Z,20.50
2022-09-12T02:34:53.839Z,21.92
2022-09-12T02:37:30.260Z,22.13
2022-09-12T02:39:58.930Z,21.55
2022-09-12T02:42:27.049Z,20.45
2022-09-12T02:44:57.130Z,22.27
2022-09-12T02:47:29.892Z,21.25
2022-09-12T02:49:57.977Z,21.77
2022-09-12T02:52:26.564Z,20.07
2022-09-12T02:54:56.280Z,21.40
2022-09-12T02:57:24.059Z,17.47
2022-09-12T02:59:56.715Z,18.77
2022-09-12T03:02:33.331Z,19.95
2022-09-12T03:05:15.488Z,17.05
2022-09-12T03:08:07.503Z,19.07
2022-09-12T03:10:44.060Z,18.27
2022-09-12T03:13:21.679Z,16.93
2022-09-12T03:16:00.403Z,17.60
2022-09-12T03:18:43.648Z,18.70
2022-09-12T03:21:17.932Z,16.43
2022-09-12T03:23:52.618Z,20.15
2022-09-12T03:26:28.534Z,19.60
2022-09-12T03:28:59.202Z,17.27
2022-09-12T03:31:27.044Z,19.48
2022-09-12T03:33:56.127Z,17.92
2022-09-12T03:36:26.527Z,19.73
2022-09-12T03:38:54.434Z,17.70
2022-09-12T03:41:22.620Z,14.98
2022-09-12T03:43:50.423Z,18.37
2022-09-12T03:46:18.196Z,16.67
2022-09-12T03:48:45.997Z,18.50
2022-09-12T03:51:15.109Z,17.27
2022-09-12T03:53:43.305Z,13.60
2022-09-12T03:56:13.214Z,16.47
2022-09-12T03:58:41.339Z,16.75
2022-09-12T04:01:12.570Z,15.18
2022-09-12T04:03:41.023Z,14.18
2022-09-12T04:06:09.823Z,14.10
2022-09-12T04:08:39.640Z,16.80
2022-09-12T04:11:08.384Z,16.63
2022-09-12T04:13:36.560Z,15.67
2022-09-12T04:16:05.476Z,15.98
2022-09-12T04:18:33.276Z,15.50
2022-09-12T04:21:05.020Z,15.98
2022-09-12T04:23:32.778Z,13.67
2022-09-12T04:26:06.356Z,15.82
2022-09-12T04:28:34.838Z,14.13
2022-09-12T04:31:04.765Z,15.03
2022-09-12T04:33:32.700Z,17.53
2022-09-12T04:36:05.170Z,14.00
2022-09-12T04:38:33.146Z,15.18
2022-09-12T04:41:02.403Z,12.57
2022-09-12T04:43:30.071Z,17.03
2022-09-12T04:45:58.408Z,15.67
2022-09-12T04:48:27.015Z,17.80
2022-09-12T04:50:54.699Z,16.67
2022-09-12T04:53:22.398Z,16.40
2022-09-12T04:55:50.091Z,15.13
2022-09-12T04:58:19.204Z,16.00
2022-09-12T05:00:46.875Z,13.03
2022-09-12T05:03:14.703Z,15.63
2022-09-12T05:05:44.279Z,17.90
2022-09-12T05:08:13.184Z,15.52
2022-09-12T05:10:41.416Z,15.10
2022-09-12T05:13:09.399Z,16.83
2022-09-12T05:15:38.999Z,15.60
2022-09-12T05:18:07.500Z,13.63
2022-09-12T05:20:35.447Z,14.05
2022-09-12T05:23:03.208Z,20.27
2022-09-12T05:25:31.179Z,13.13
2022-09-12T05:27:58.963Z,15.30
2022-09-12T05:30:26.653Z,12.43
2022-09-12T05:32:56.323Z,17.90
2022-09-12T05:35:24.096Z,15.47
2022-09-12T05:37:52.510Z,13.93
2022-09-12T05:40:23.291Z,13.63
2022-09-12T05:42:51.030Z,10.95
2022-09-12T05:45:18.726Z,13.30
2022-09-12T05:47:47.791Z,13.63
2022-09-12T05:50:17.100Z,13.70
2022-09-12T05:52:46.058Z,13.70
2022-09-12T05:55:14.339Z,11.00
2022-09-12T05:57:45.829Z,16.02
2022-09-12T06:00:15.528Z,11.83
2022-09-12T06:02:43.600Z,13.47
2022-09-12T06:05:11.777Z,12.67
2022-09-12T06:07:40.895Z,14.82
2022-09-12T06:10:09.274Z,14.70
2022-09-12T06:12:36.960Z,14.15
2022-09-12T06:15:05.171Z,13.70
2022-09-12T06:17:33.304Z,13.88
2022-09-12T06:20:01.798Z,13.32
2022-09-12T06:22:29.494Z,15.90
2022-09-12T06:24:58.517Z,14.20
2022-09-12T06:27:26.608Z,13.40
2022-09-12T06:29:54.343Z,11.77
2022-09-12T06:32:22.025Z,13.43
2022-09-12T06:34:49.816Z,12.00
2022-09-12T06:37:17.527Z,12.25
2022-09-12T06:39:45.277Z,13.30
2022-09-12T06:42:14.863Z,13.00
2022-09-12T06:44:52.022Z,12.90
2022-09-12T06:47:20.622Z,14.33
2022-09-12T06:49:48.320Z,19.30
2022-09-12T06:52:16.025Z,15.53
2022-09-12T06:54:43.667Z,15.77
2022-09-12T06:57:11.364Z,15.17
2022-09-12T06:59:40.410Z,16.53
2022-09-12T07:02:09.949Z,15.65
2022-09-12T07:04:37.734Z,14.70
2022-09-12T07:07:05.757Z,18.67
2022-09-12T07:09:33.467Z,16.07
2022-09-12T07:12:04.279Z,13.47
2022-09-12T07:14:32.033Z,14.67
2022-09-12T07:17:01.475Z,10.18
2022-09-12T07:19:29.609Z,12.90
2022-09-12T07:21:58.795Z,11.52
2022-09-12T07:24:26.701Z,14.87
2022-09-12T07:26:54.572Z,13.27
2022-09-12T07:29:38.127Z,12.50
2022-09-12T07:32:07.766Z,17.20
2022-09-12T07:34:36.081Z,13.68
2022-09-12T07:37:04.015Z,12.87
2022-09-12T07:39:32.344Z,11.27
2022-09-12T07:42:00.394Z,14.35
2022-09-12T07:44:28.148Z,14.70
2022-09-12T07:46:56.128Z,14.90
2022-09-12T07:49:25.242Z,15.32
2022-09-12T07:51:53.145Z,13.15
2022-09-12T07:54:21.011Z,14.50
2022-09-12T07:56:48.863Z,14.52
2022-09-12T07:59:29.956Z,16.60
2022-09-12T08:02:03.899Z,16.27
2022-09-12T08:04:33.030Z,15.68
2022-09-12T08:07:00.722Z,15.10
2022-09-12T08:09:28.423Z,14.90
2022-09-12T08:11:56.481Z,14.60
2022-09-12T08:14:24.291Z,15.07
2022-09-12T08:16:51.980Z,16.17
2022-09-12T08:19:19.868Z,13.68
2022-09-12T08:21:48.999Z,12.40
2022-09-12T08:24:16.811Z,11.68
2022-09-12T08:26:44.462Z,10.57
2022-09-12T08:29:12.660Z,16.88
2022-09-12T08:31:42.435Z,11.15
2022-09-12T08:34:10.853Z,14.68
2022-09-12T08:36:38.605Z,13.15
2022-09-12T08:39:08.892Z,12.18
2022-09-12T08:41:40.707Z,14.35
2022-09-12T08:44:27.706Z,10.88
2022-09-12T08:47:11.920Z,14.68
2022-09-12T08:49:48.963Z,10.90
2022-09-12T08:52:22.227Z,10.02
2022-09-12T08:54:51.848Z,9.52
2022-09-12T08:57:19.567Z,12.27
2022-09-12T08:59:48.332Z,10.38
2022-09-12T09:02:42.497Z,11.10
2022-09-12T09:05:20.134Z,13.25
2022-09-12T09:08:05.691Z,12.25
2022-09-12T09:10:43.719Z,11.43
2022-09-12T09:13:39.219Z,9.55
2022-09-12T09:16:13.930Z,10.20
2022-09-12T09:18:44.698Z,10.45
2022-09-12T09:21:22.817Z,9.23
2022-09-12T09:23:54.403Z,9.98
2022-09-12T09:26:29.085Z,11.93
2022-09-12T09:29:00.492Z,10.93
2022-09-12T09:31:34.641Z,9.48
2022-09-12T09:34:02.488Z,15.23
2022-09-12T09:36:41.956Z,9.32
2022-09-12T09:39:17.503Z,9.65
2022-09-12T09:42:00.207Z,12.90
2022-09-12T09:44:29.902Z,9.63
2022-09-12T09:47:00.434Z,7.85
2022-09-12T09:49:32.276Z,6.88
2022-09-12T09:52:01.790Z,8.88
2022-09-12T09:54:35.936Z,7.53
2022-09-12T09:57:05.599Z,6.82
2022-09-12T09:59:35.012Z,5.80
2022-09-12T10:02:05.339Z,8.73
2022-09-12T10:04:39.359Z,6.88
2022-09-12T10:07:19.342Z,7.35
2022-09-12T10:10:06.990Z,6.90
2022-09-12T10:12:36.176Z,6.30
2022-09-12T10:15:17.989Z,6.47
2022-09-12T10:17:47.338Z,6.57
2022-09-12T10:20:33.062Z,6.25
2022-09-12T10:23:02.377Z,6.50
2022-09-12T10:25:30.342Z,6.43
2022-09-12T10:28:02.804Z,6.05
2022-09-12T10:30:30.728Z,5.25
2022-09-12T10:33:06.799Z,5.00
2022-09-12T10:35:46.451Z,5.72
2022-09-12T10:38:18.870Z,5.00
2022-09-12T10:40:46.597Z,4.55
2022-09-12T10:43:27.470Z,6.30
2022-09-12T10:45:58.874Z,4.78
2022-09-12T10:48:30.270Z,5.40
2022-09-12T10:50:59.942Z,4.78
2022-09-12T10:53:34.119Z,5.00
2022-09-12T10:56:09.407Z,4.32
2022-09-12T10:58:53.609Z,4.22
2022-09-12T11:01:36.305Z,3.65
2022-09-12T11:04:20.078Z,3.70
2022-09-12T11:06:56.427Z,4.43
2022-09-12T11:09:33.604Z,4.22
2022-09-12T11:12:10.022Z,5.60
2022-09-12T11:14:53.619Z,4.00
2022-09-12T11:17:30.423Z,5.45
2022-09-12T11:20:27.316Z,3.85
2022-09-12T11:23:27.691Z,3.20
2022-09-12T11:26:04.102Z,4.22
2022-09-12T11:28:47.077Z,3.50
2022-09-12T11:31:32.833Z,3.38
2022-09-12T11:34:03.796Z,3.78
2022-09-12T11:36:39.913Z,3.40
2022-09-12T11:39:15.799Z,4.15
2022-09-12T11:41:47.954Z,4.00
2022-09-12T11:44:22.249Z,4.50
2022-09-12T11:46:52.230Z,3.53
2022-09-12T11:49:33.553Z,3.50
2022-09-12T11:52:08.358Z,3.92
2022-09-12T11:54:40.759Z,4.80
2022-09-12T11:57:17.069Z,6.20
2022-09-12T11:59:50.775Z,3.42
2022-09-12T12:02:26.426Z,5.60
2022-09-12T12:05:05.952Z,3.78
2022-09-12T12:07:45.585Z,4.38
2022-09-12T12:10:26.643Z,3.38
2022-09-12T12:12:56.095Z,3.78
2022-09-12T12:15:25.258Z,5.85
2022-09-12T12:18:04.632Z,4.32
2022-09-12T12:20:32.615Z,7.50
2022-09-12T12:23:00.925Z,3.40
2022-09-12T12:25:41.511Z,3.40
2022-09-12T12:28:09.580Z,3.00
2022-09-12T12:31:05.388Z,2.80
2022-09-12T12:34:01.739Z,2.83
2022-09-12T12:36:50.164Z,2.72
2022-09-12T12:40:03.102Z,2.58
2022-09-12T12:43:05.116Z,2.47
2022-09-12T12:46:06.930Z,2.15
2022-09-12T12:48:58.870Z,2.53
2022-09-12T12:51:51.231Z,2.45
2022-09-12T12:54:49.497Z,2.50
2022-09-12T12:57:20.757Z,2.38
2022-09-12T12:59:51.869Z,2.10
2022-09-12T13:02:28.870Z,2.30
2022-09-12T13:05:01.047Z,2.10
2022-09-12T13:07:33.284Z,2.10
2022-09-12T13:10:02.286Z,1.92
2022-09-12T13:12:33.971Z,1.80
2022-09-12T13:15:30.343Z,2.70
2022-09-12T13:18:02.561Z,2.13
2022-09-12T13:20:39.263Z,2.45
2022-09-12T13:23:07.001Z,2.10
2022-09-12T13:25:36.635Z,2.08
2022-09-12T13:28:07.735Z,1.80
2022-09-12T13:30:41.518Z,2.45
2022-09-12T13:33:20.649Z,1.88
2022-09-12T13:36:31.639Z,1.90
2022-09-12T13:39:11.808Z,3.03
2022-09-12T13:41:57.716Z,2.05
2022-09-12T13:44:27.467Z,2.33
2022-09-12T13:47:02.729Z,2.63
2022-09-12T13:49:35.321Z,2.30
2022-09-12T13:52:07.585Z,4.10
2022-09-12T13:54:40.156Z,5.10
2022-09-12T13:57:07.893Z,3.25
2022-09-12T13:59:44.516Z,5.10
2022-09-12T14:02:20.289Z,2.60
2022-09-12T14:05:06.550Z,2.97
2022-09-12T14:07:40.061Z,3.20
2022-09-12T14:10:08.702Z,2.45
2022-09-12T14:12:40.212Z,2.85
2022-09-12T14:15:16.928Z,3.10
2022-09-12T14:17:52.036Z,3.10
2022-09-12T14:20:23.195Z,7.00
2022-09-12T14:22:53.794Z,3.63
2022-09-12T14:25:24.502Z,2.83
2022-09-12T14:27:55.326Z,3.08
2022-09-12T14:30:26.212Z,2.50
2022-09-12T14:33:18.165Z,3.60
2022-09-12T14:35:47.864Z,3.28
2022-09-12T14:38:23.414Z,3.28
2022-09-12T14:40:54.301Z,3.75
2022-09-12T14:43:27.593Z,2.75
2022-09-12T14:45:57.343Z,3.70
2022-09-12T14:48:25.331Z,2.83
2022-09-12T14:50:55.007Z,3.38
2022-09-12T14:53:31.304Z,3.90
2022-09-12T14:56:07.140Z,3.08
2022-09-12T14:58:35.135Z,3.08
2022-09-12T15:01:05.814Z,2.80
2022-09-12T15:03:36.788Z,4.20
2022-09-12T15:06:07.976Z,2.70
2022-09-12T15:08:37.168Z,4.28
2022-09-12T15:11:07.927Z,2.65
2022-09-12T15:13:41.081Z,2.80
2022-09-12T15:16:11.285Z,3.17
2022-09-12T15:18:39.368Z,2.50
2022-09-12T15:21:08.866Z,2.63
2022-09-12T15:23:41.395Z,4.00
2022-09-12T15:26:13.253Z,3.60
2022-09-12T15:28:41.242Z,3.10
2022-09-12T15:31:14.831Z,3.15
2022-09-12T15:33:42.665Z,3.25
2022-09-12T15:36:15.684Z,3.17
2022-09-12T15:38:45.496Z,3.00
2022-09-12T15:41:16.748Z,2.80
2022-09-12T15:43:44.819Z,3.20
2022-09-12T15:46:13.717Z,2.90
2022-09-12T15:48:41.805Z,3.47
2022-09-12T15:51:15.479Z,3.03
2022-09-12T15:53:45.231Z,3.88
2022-09-12T15:56:13.291Z,2.83
2022-09-12T15:58:57.088Z,2.95
2022-09-12T16:01:25.347Z,4.05
2022-09-12T16:03:53.164Z,3.55
2022-09-12T16:06:20.906Z,5.25
2022-09-12T16:08:50.257Z,2.58
2022-09-12T16:11:22.357Z,3.42
2022-09-12T16:13:50.356Z,2.95
2022-09-12T16:16:18.079Z,3.50
2022-09-12T16:18:46.000Z,3.28
2022-09-12T16:21:15.531Z,3.25
2022-09-12T16:23:43.971Z,3.30
2022-09-12T16:26:13.223Z,2.65
2022-09-12T16:28:41.195Z,3.80
2022-09-12T16:31:11.821Z,3.13
2022-09-12T16:33:40.607Z,3.00
2022-09-12T16:36:10.343Z,3.25
2022-09-12T16:38:42.354Z,3.53
2022-09-12T16:41:10.440Z,3.72
2022-09-12T16:43:39.959Z,4.03
2022-09-12T16:46:10.250Z,3.42
2022-09-12T16:48:38.886Z,5.05
2022-09-12T16:51:07.797Z,3.53
2022-09-12T16:53:37.939Z,3.70
2022-09-12T16:56:09.431Z,3.63
2022-09-12T16:58:42.034Z,3.55
2022-09-12T17:01:12.144Z,5.18
2022-09-12T17:03:40.502Z,5.15
2022-09-12T17:06:10.956Z,3.75
2022-09-12T17:08:40.683Z,4.18
2022-09-12T17:11:10.679Z,3.55
2022-09-12T17:14:03.193Z,4.25
2022-09-12T17:16:31.142Z,3.67
2022-09-12T17:18:58.919Z,3.20
2022-09-12T17:21:26.698Z,3.63
2022-09-12T17:23:54.418Z,5.60
2022-09-12T17:26:22.224Z,4.97
2022-09-12T17:28:51.279Z,3.42
2022-09-12T17:31:19.754Z,3.65
2022-09-12T17:33:47.813Z,3.60
2022-09-12T17:36:18.749Z,3.85
2022-09-12T17:38:47.358Z,3.50
2022-09-12T17:41:17.836Z,3.85
2022-09-12T17:43:46.392Z,3.28
2022-09-12T17:46:15.646Z,5.30
2022-09-12T17:48:43.702Z,3.70
2022-09-12T17:51:13.431Z,3.83
2022-09-12T17:53:41.642Z,3.38
2022-09-12T17:56:10.917Z,4.00
2022-09-12T17:58:39.244Z,3.65
2022-09-12T18:01:26.664Z,3.78
2022-09-12T18:03:56.718Z,3.65
2022-09-12T18:06:25.318Z,5.18
2022-09-12T18:08:53.055Z,4.43
2022-09-12T18:11:20.947Z,4.32
2022-09-12T18:13:48.769Z,4.78
2022-09-12T18:16:17.047Z,3.70
2022-09-12T18:18:44.822Z,3.97
2022-09-12T18:21:14.309Z,5.43
2022-09-12T18:23:42.055Z,4.50
2022-09-12T18:26:12.499Z,4.95
2022-09-12T18:28:42.663Z,4.22
2022-09-12T18:31:15.604Z,4.07
2022-09-12T18:33:43.865Z,3.92
2022-09-12T18:36:14.839Z,5.03
2022-09-12T18:38:43.231Z,5.47
2022-09-12T18:41:12.414Z,4.35
2022-09-12T18:43:40.108Z,4.80
2022-09-12T18:46:09.603Z,3.95
2022-09-12T18:48:37.581Z,4.45
2022-09-12T18:51:08.008Z,3.80
2022-09-12T18:53:37.814Z,4.90
2022-09-12T18:56:09.276Z,4.57
2022-09-12T18:58:37.103Z,4.88
2022-09-12T19:01:12.947Z,4.43
2022-09-12T19:03:40.729Z,4.65
2022-09-12T19:06:11.730Z,4.78
2022-09-12T19:08:41.417Z,4.85
2022-09-12T19:11:10.205Z,3.95
2022-09-12T19:13:39.784Z,6.40
2022-09-12T19:16:10.022Z,5.25
2022-09-12T19:18:38.775Z,4.82
2022-09-12T19:21:07.940Z,4.82
2022-09-12T19:23:36.658Z,5.57
2022-09-12T19:26:07.829Z,8.23
2022-09-12T19:28:36.212Z,6.45
2022-09-12T19:31:05.636Z,7.57
2022-09-12T19:33:33.765Z,7.70
2022-09-12T19:36:02.709Z,9.32
2022-09-12T19:38:31.054Z,7.63
2022-09-12T19:41:00.215Z,8.20
2022-09-12T19:43:30.584Z,8.82
2022-09-12T19:45:58.612Z,9.93
2022-09-12T19:48:26.598Z,7.05
2022-09-12T19:50:54.432Z,7.82
2022-09-12T19:53:22.198Z,7.10
2022-09-12T19:55:50.040Z,6.68
2022-09-12T19:58:17.787Z,6.15
2022-09-12T20:00:46.923Z,7.80
2022-09-12T20:03:14.608Z,7.05
2022-09-12T20:05:42.994Z,9.25
2022-09-12T20:08:10.787Z,8.10
2022-09-12T20:10:38.471Z,8.95
2022-09-12T20:13:07.260Z,7.43
2022-09-12T20:15:35.006Z,5.55
2022-09-12T20:18:04.282Z,6.70
2022-09-12T20:20:32.629Z,4.05
2022-09-12T20:23:00.361Z,4.80
2022-09-12T20:25:28.193Z,4.85
2022-09-12T20:27:59.937Z,3.63
2022-09-12T20:30:28.210Z,3.28
2022-09-12T20:32:55.925Z,3.75
2022-09-12T20:35:25.779Z,3.70
2022-09-12T20:37:53.554Z,5.53
2022-09-12T20:40:21.350Z,4.25
2022-09-12T20:42:49.316Z,4.00
2022-09-12T20:45:17.056Z,5.78
2022-09-12T20:47:44.813Z,6.47
2022-09-12T20:50:12.757Z,7.40
2022-09-12T20:52:41.905Z,7.18
2022-09-12T20:55:10.872Z,8.52
2022-09-12T20:57:38.609Z,8.25
2022-09-12T21:00:09.021Z,7.15
2022-09-12T21:02:36.840Z,7.55
2022-09-12T21:05:04.999Z,6.85
2022-09-12T21:07:32.799Z,8.18
2022-09-12T21:10:01.899Z,11.27
2022-09-12T21:12:29.623Z,7.65
2022-09-12T21:14:57.386Z,5.82
2022-09-12T21:17:25.583Z,6.47
2022-09-12T21:19:53.371Z,7.63
2022-09-12T21:22:21.062Z,6.28
2022-09-12T21:24:48.790Z,6.85
2022-09-12T21:27:17.862Z,6.53
2022-09-12T21:29:45.591Z,5.68
2022-09-12T21:32:14.379Z,6.88
2022-09-12T21:34:42.201Z,6.45
2022-09-12T21:37:09.977Z,9.25
2022-09-12T21:39:37.752Z,5.32
2022-09-12T21:42:05.589Z,4.38
2022-09-12T21:44:34.641Z,4.78
2022-09-12T21:47:02.392Z,3.35
2022-09-12T21:49:30.087Z,5.80
2022-09-12T21:51:57.909Z,3.90
2022-09-12T21:54:25.633Z,3.95
2022-09-12T21:56:53.355Z,6.70
2022-09-12T21:59:21.310Z,4.00
2022-09-12T22:01:50.480Z,4.72
2022-09-12T22:04:18.220Z,3.40
2022-09-12T22:06:45.905Z,3.70
2022-09-12T22:09:14.082Z,4.15
2022-09-12T22:11:41.784Z,4.93
2022-09-12T22:14:09.491Z,5.22
2022-09-12T22:16:37.232Z,5.20
2022-09-12T22:19:06.266Z,6.72
2022-09-12T22:21:33.959Z,4.00
2022-09-12T22:24:19.167Z,5.80
2022-09-12T22:26:47.393Z,5.57
2022-09-12T22:29:15.149Z,5.95
2022-09-12T22:31:43.128Z,5.72
2022-09-12T22:34:12.329Z,5.65
2022-09-12T22:36:40.496Z,5.35
2022-09-12T22:39:08.712Z,4.30
2022-09-12T22:41:36.415Z,6.65
2022-09-12T22:44:04.159Z,4.90
2022-09-12T22:46:32.488Z,5.43
2022-09-12T22:49:00.404Z,7.20
2022-09-12T22:51:29.458Z,5.60
2022-09-12T22:53:57.458Z,5.35
2022-09-12T22:56:25.695Z,5.80
2022-09-12T22:58:53.820Z,6.35
2022-09-12T23:01:21.639Z,7.47
2022-09-12T23:03:49.440Z,6.25
2022-09-12T23:06:20.482Z,4.68
2022-09-12T23:08:49.564Z,5.95
2022-09-12T23:11:19.138Z,6.53
2022-09-12T23:13:48.855Z,7.10
2022-09-12T23:16:19.287Z,6.35
2022-09-12T23:18:47.275Z,6.60
2022-09-12T23:21:17.291Z,5.93
2022-09-12T23:23:45.388Z,5.43
2022-09-12T23:26:17.244Z,4.65
2022-09-12T23:28:50.139Z,7.15
2022-09-12T23:31:18.567Z,7.57
2022-09-12T23:33:46.938Z,5.07
2022-09-12T23:36:15.128Z,6.43
2022-09-12T23:38:44.723Z,8.25
2022-09-12T23:41:15.191Z,8.57
2022-09-12T23:43:45.256Z,7.70
2022-09-12T23:46:13.881Z,6.65
2022-09-12T23:48:42.302Z,6.38
2022-09-12T23:51:11.153Z,6.57
2022-09-12T23:53:39.212Z,6.03
2022-09-12T23:56:07.598Z,8.32
2022-09-12T23:58:36.881Z,6.80
